Time;durP1;ratioP1;P1;durP2;ratioP2;P2;SDS_P1;SDS_P2;PMS_P1;PMS_P2;Temp;Humidity;BMP_temperature;BMP_pressure;BME280_temperature;BME280_humidity;BME280_pressure;Samples;Min_cycle;Max_cycle;Signal;HPM_P1;HPM_P2
2022/03/07 00:01:38;;;;;;;16.27;11.30;;;6.10;64.40;;;9.39;49.30;102708.22;5054955;28;20658;-50
2022/03/07 00:04:07;;;;;;;13.07;10.07;;;6.20;64.70;;;9.45;48.79;102705.13;5054749;28;20214;-54
2022/03/07 00:06:34;;;;;;;13.70;9.00;;;6.20;64.90;;;9.52;49.03;102708.13;5055086;28;20295;-53
2022/03/07 00:09:02;;;;;;;13.67;9.90;;;6.30;63.90;;;9.58;48.68;102706.81;5053704;28;20213;-54
2022/03/07 00:11:29;;;;;;;13.63;9.67;;;6.30;63.50;;;9.64;48.41;102706.31;5054831;28;20659;-55
2022/03/07 00:13:59;;;;;;;13.07;10.63;;;6.40;63.10;;;9.67;48.02;102700.84;5054740;28;20570;-55
2022/03/07 00:16:27;;;;;;;11.63;9.73;;;6.40;63.20;;;9.65;48.38;102700.13;5053544;28;20537;-52
2022/03/07 00:18:54;;;;;;;11.53;9.87;;;6.40;63.20;;;9.64;48.25;102701.91;5053622;28;20190;-54
2022/03/07 00:21:24;;;;;;;13.43;9.67;;;6.40;62.90;;;9.63;48.06;102704.66;5054911;28;20190;-55
2022/03/07 00:23:52;;;;;;;16.47;11.90;;;6.40;62.90;;;9.61;47.95;102706.56;5054575;28;20218;-52
2022/03/07 00:26:20;;;;;;;14.03;12.20;;;6.30;63.00;;;9.54;47.98;102712.31;5054777;28;20191;-56
2022/03/07 00:28:47;;;;;;;16.20;11.77;;;6.20;62.80;;;9.50;47.87;102710.88;5054331;28;20718;-56
2022/03/07 00:31:17;;;;;;;15.43;11.63;;;6.20;62.90;;;9.44;47.92;102706.06;5054238;28;20202;-55
2022/03/07 00:33:45;;;;;;;13.30;10.67;;;6.10;63.00;;;9.39;48.13;102710.84;5053999;28;20230;-53
2022/03/07 00:36:12;;;;;;;13.53;10.70;;;6.10;62.90;;;9.33;48.19;102718.38;5054717;28;20199;-53
2022/03/07 00:38:41;;;;;;;16.43;10.97;;;6.00;62.60;;;9.25;47.95;102716.31;5054443;28;20288;-51
2022/03/07 00:41:09;;;;;;;15.37;11.13;;;6.00;62.50;;;9.18;47.71;102709.88;5054145;28;20244;-51
2022/03/07 00:43:38;;;;;;;19.07;10.20;;;5.90;62.50;;;9.09;47.98;102715.81;5053750;28;20214;-54
2022/03/07 00:46:08;;;;;;;15.63;11.47;;;5.90;62.30;;;9.01;48.13;102715.53;5054625;28;20191;-51
2022/03/07 00:48:36;;;;;;;16.57;12.20;;;5.80;62.30;;;8.93;48.15;102725.81;5054219;28;20296;-49
2022/03/07 00:51:04;;;;;;;14.23;11.50;;;5.70;62.60;;;8.87;48.04;102721.00;5055019;28;20194;-53
2022/03/07 00:53:31;;;;;;;13.03;11.60;;;5.70;62.90;;;8.79;48.16;102723.38;5054369;28;20198;-53
2022/03/07 00:56:00;;;;;;;14.10;11.07;;;5.60;63.10;;;8.73;48.51;102721.19;5053629;28;20183;-51
2022/03/07 00:58:30;;;;;;;14.73;11.23;;;5.50;63.40;;;8.67;48.44;102729.53;5054737;28;20248;-51
2022/03/07 01:00:57;;;;;;;13.33;11.27;;;5.40;63.60;;;8.59;48.68;102732.72;5054390;28;20190;-50
2022/03/07 01:03:24;;;;;;;16.13;12.40;;;5.40;64.00;;;8.53;48.80;102730.56;5053370;28;20206;-55
2022/03/07 01:05:52;;;;;;;16.13;12.03;;;5.30;64.40;;;8.45;48.99;102730.25;5054493;28;20269;-54
2022/03/07 01:08:20;;;;;;;13.27;11.43;;;5.20;64.70;;;8.40;48.80;102739.41;5053800;28;20219;-55
2022/03/07 01:10:47;;;;;;;14.60;11.23;;;5.20;64.90;;;8.34;49.50;102737.25;5054073;28;20523;-55
2022/03/07 01:13:18;;;;;;;14.53;10.77;;;5.10;65.20;;;8.28;49.60;102740.28;5053378;28;20198;-53
2022/03/07 01:15:46;;;;;;;13.67;10.43;;;5.00;65.10;;;8.23;49.30;102734.50;5053957;28;20265;-52
2022/03/07 01:18:14;;;;;;;12.93;10.80;;;5.00;65.20;;;8.17;49.47;102736.63;5053655;28;20182;-51
2022/03/07 01:20:41;;;;;;;11.73;10.27;;;5.00;65.30;;;8.12;49.68;102732.66;5053319;28;20197;-55
2022/03/07 01:23:08;;;;;;;13.40;11.00;;;4.90;65.80;;;8.07;49.66;102727.75;5053272;28;20580;-51
2022/03/07 01:25:36;;;;;;;11.73;10.43;;;4.90;66.30;;;8.04;49.98;102727.09;5053413;28;20565;-55
2022/03/07 01:28:04;;;;;;;12.40;9.23;;;4.80;66.60;;;7.99;50.00;102726.59;5053438;28;20210;-51
2022/03/07 01:30:32;;;;;;;13.10;9.60;;;4.80;66.20;;;7.96;49.88;102727.66;5053940;28;20221;-53
2022/03/07 01:33:00;;;;;;;12.80;9.77;;;4.70;66.20;;;7.93;50.04;102719.19;5053481;28;20221;-55
2022/03/07 01:35:27;;;;;;;14.17;10.30;;;4.70;66.40;;;7.91;50.55;102719.28;5053442;28;20713;-51
2022/03/07 01:37:54;;;;;;;10.97;9.73;;;4.70;67.00;;;7.89;50.46;102721.16;5053308;28;20279;-50
2022/03/07 01:40:24;;;;;;;18.73;10.43;;;4.70;67.20;;;7.86;50.61;102718.78;5053455;28;20194;-53
2022/03/07 01:42:52;;;;;;;11.43;9.20;;;4.70;66.90;;;7.85;50.78;102724.09;5053059;28;20191;-56
2022/03/07 01:45:20;;;;;;;13.23;10.77;;;4.70;66.90;;;7.82;50.40;102714.66;5053347;28;20221;-56
2022/03/07 01:47:49;;;;;;;12.00;10.03;;;4.60;67.10;;;7.81;50.41;102717.41;5053209;28;20190;-56
2022/03/07 01:50:20;;;;;;;14.73;10.47;;;4.60;67.10;;;7.77;50.84;102711.56;5053460;28;20202;-51
2022/03/07 01:52:53;;;;;;;14.47;10.63;;;4.60;67.40;;;7.76;50.87;102720.38;5052092;28;20281;-52
2022/03/07 01:55:21;;;;;;;12.73;10.63;;;4.50;67.80;;;7.75;51.67;102718.66;5053531;28;20629;-51
2022/03/07 01:57:49;;;;;;;18.63;11.73;;;4.50;68.30;;;7.75;51.22;102718.66;5053288;28;20200;-54
2022/03/07 02:00:21;;;;;;;13.47;9.40;;;4.50;68.30;;;7.74;51.56;102717.00;5053358;28;20630;-52
2022/03/07 02:02:51;;;;;;;14.30;10.37;;;4.50;67.90;;;7.73;51.34;102715.31;5052794;28;20292;-54
2022/03/07 02:05:19;;;;;;;13.77;10.57;;;4.50;67.70;;;7.73;51.57;102719.72;5053341;28;20605;-54
2022/03/07 02:07:47;;;;;;;15.47;9.17;;;4.50;67.60;;;7.71;50.91;102726.84;5052970;28;20221;-54
2022/03/07 02:10:14;;;;;;;13.80;9.33;;;4.50;67.40;;;7.67;51.02;102726.25;5052897;28;20674;-54
2022/03/07 02:12:42;;;;;;;10.60;9.40;;;4.50;67.20;;;7.65;51.38;102725.53;5051666;28;20201;-55
2022/03/07 02:15:09;;;;;;;16.33;10.13;;;4.50;67.30;;;7.65;50.88;102722.91;5051769;28;20551;-53
2022/03/07 02:17:37;;;;;;;15.67;11.57;;;4.50;67.40;;;7.62;51.42;102723.09;5053257;28;20600;-53
2022/03/07 02:20:08;;;;;;;11.47;10.27;;;4.50;67.70;;;7.63;51.46;102730.00;5053604;28;20193;-51
2022/03/07 02:22:37;;;;;;;14.43;11.87;;;4.50;67.90;;;7.64;51.85;102726.44;5053287;28;20197;-50
2022/03/07 02:25:06;;;;;;;16.50;11.60;;;4.50;68.30;;;7.62;51.83;102733.59;5052882;28;20682;-53
2022/03/07 02:27:34;;;;;;;16.60;12.40;;;4.40;68.30;;;7.60;51.75;102727.63;5053333;28;20190;-53
2022/03/07 02:30:05;;;;;;;16.33;11.97;;;4.40;68.60;;;7.58;51.58;102724.28;5052913;28;20214;-57
2022/03/07 02:32:32;;;;;;;14.30;10.77;;;4.40;68.70;;;7.54;51.52;102725.41;5053837;28;20198;-52
2022/03/07 02:35:00;;;;;;;12.53;10.43;;;4.30;68.50;;;7.50;51.71;102730.03;5056806;28;20583;-56
2022/03/07 02:37:28;;;;;;;12.77;11.30;;;4.30;68.30;;;7.49;52.02;102717.03;5056629;28;20663;-57
2022/03/07 02:39:57;;;;;;;14.97;12.23;;;4.30;68.70;;;7.49;51.87;102719.63;5056577;28;20264;-54
2022/03/07 02:42:37;;;;;;;15.20;11.90;;;4.30;69.00;;;7.46;52.30;102719.88;5056221;28;20709;-57
2022/03/07 02:45:06;;;;;;;15.10;11.13;;;4.30;69.70;;;7.44;52.39;102719.16;5056604;28;20217;-51
2022/03/07 02:47:33;;;;;;;15.53;11.07;;;4.30;69.80;;;7.44;52.26;102713.91;5056639;28;20679;-53
2022/03/07 02:50:01;;;;;;;17.20;11.90;;;4.30;69.80;;;7.42;52.49;102706.13;5056570;28;20305;-57
2022/03/07 02:52:28;;;;;;;14.47;10.87;;;4.20;70.00;;;7.43;52.53;102709.59;5056297;28;20194;-53
2022/03/07 02:54:57;;;;;;;14.93;12.03;;;4.20;70.00;;;7.43;52.83;102704.34;5056419;28;20214;-56
2022/03/07 02:57:24;;;;;;;12.53;10.83;;;4.20;70.50;;;7.42;52.27;102706.13;5056284;28;20265;-52
2022/03/07 02:59:54;;;;;;;17.13;11.90;;;4.20;70.50;;;7.42;52.55;102705.28;5056194;28;20182;-52
2022/03/07 03:02:21;;;;;;;14.67;12.80;;;4.20;71.20;;;7.43;52.59;102712.22;5055840;28;20186;-54
2022/03/07 03:04:49;;;;;;;16.17;12.03;;;4.20;71.80;;;7.41;53.17;102699.25;5056099;28;20214;-54
2022/03/07 03:07:16;;;;;;;14.80;12.43;;;4.20;72.00;;;7.44;53.76;102692.94;5056125;28;20189;-54
2022/03/07 03:09:45;;;;;;;15.17;12.27;;;4.30;72.10;;;7.49;54.32;102696.91;5056114;28;20221;-52
2022/03/07 03:12:14;;;;;;;13.43;10.97;;;4.30;72.20;;;7.53;54.83;102698.38;5055982;28;20194;-52
2022/03/07 03:14:41;;;;;;;16.57;12.90;;;4.40;72.10;;;7.62;54.25;102696.91;5055840;28;20215;-54
2022/03/07 03:17:08;;;;;;;12.53;10.83;;;4.50;71.50;;;7.71;54.69;102698.88;5056077;28;20186;-52
2022/03/07 03:19:36;;;;;;;14.37;11.17;;;4.60;71.30;;;7.80;54.26;102695.59;5055920;28;20226;-53
2022/03/07 03:22:03;;;;;;;13.47;11.30;;;4.70;70.90;;;7.92;54.12;102694.75;5055799;28;20194;-56
2022/03/07 03:24:30;;;;;;;15.07;11.10;;;4.90;70.40;;;8.03;53.79;102691.38;5055315;28;20216;-51
2022/03/07 03:26:58;;;;;;;17.73;12.33;;;5.00;69.70;;;8.13;53.09;102698.44;5055516;28;20194;-49
2022/03/07 03:29:26;;;;;;;14.90;11.37;;;5.10;68.80;;;8.27;52.91;102694.03;5055452;28;20218;-53
2022/03/07 03:31:55;;;;;;;15.60;11.30;;;5.30;68.40;;;8.39;52.51;102693.16;5055439;28;20221;-52
2022/03/07 03:34:23;;;;;;;14.90;11.53;;;5.40;67.70;;;8.49;52.03;102699.38;5055308;28;20300;-50
2022/03/07 03:36:51;;;;;;;13.00;11.10;;;5.40;67.00;;;8.57;51.71;102702.28;5055744;28;20187;-50
2022/03/07 03:39:18;;;;;;;13.17;10.00;;;5.50;66.70;;;8.69;51.62;102706.63;5055504;28;20552;-52
2022/03/07 03:41:45;;;;;;;15.10;10.67;;;5.60;66.60;;;8.79;51.53;102697.94;5054782;28;20562;-50
2022/03/07 03:44:12;;;;;;;18.10;11.17;;;5.70;66.80;;;8.91;51.25;102704.09;5054800;28;20210;-52
2022/03/07 03:46:41;;;;;;;17.10;12.43;;;5.70;66.50;;;8.98;51.39;102702.66;5055417;28;20198;-50
2022/03/07 03:49:08;;;;;;;17.50;12.03;;;5.80;66.70;;;9.05;51.00;102706.50;5055150;28;20225;-50
2022/03/07 03:51:36;;;;;;;19.30;12.93;;;5.80;66.50;;;9.12;50.78;102699.00;5055435;28;20191;-51
2022/03/07 03:54:03;;;;;;;18.50;13.30;;;5.90;65.70;;;9.13;50.25;102705.94;5055059;28;20231;-50
2022/03/07 03:56:31;;;;;;;19.43;13.27;;;5.90;65.80;;;9.08;50.21;102700.19;5055566;28;20670;-50
2022/03/07 03:58:58;;;;;;;43.63;14.50;;;5.80;66.10;;;9.02;49.98;102714.63;5055314;28;20199;-50
2022/03/07 04:01:25;;;;;;;20.40;13.50;;;5.80;67.10;;;8.96;50.62;102714.25;5055282;28;20547;-51
2022/03/07 04:03:54;;;;;;;48.23;15.47;;;5.60;67.90;;;8.87;50.50;102707.88;5054722;28;20293;-50
2022/03/07 04:06:21;;;;;;;52.23;15.80;;;5.60;68.10;;;8.81;50.89;102710.97;5054759;28;20209;-56
2022/03/07 04:09:08;;;;;;;42.93;15.07;;;5.50;68.50;;;8.75;51.30;102716.66;5054740;28;20215;-53
2022/03/07 04:11:36;;;;;;;44.03;13.43;;;5.40;68.90;;;8.70;51.52;102713.56;5053071;28;20204;-51
2022/03/07 04:14:03;;;;;;;27.07;12.90;;;5.40;68.90;;;8.65;51.60;102711.25;5054264;28;20560;-51
2022/03/07 04:16:30;;;;;;;24.07;12.80;;;5.30;68.80;;;8.63;51.99;102721.03;5054651;28;20265;-53
2022/03/07 04:18:59;;;;;;;36.27;15.20;;;5.30;69.10;;;8.62;51.93;102723.78;5054572;28;20241;-52
2022/03/07 04:21:26;;;;;;;16.47;11.93;;;5.30;68.60;;;8.55;52.18;102728.66;5054503;28;20583;-51
2022/03/07 04:23:54;;;;;;;25.17;14.13;;;5.20;69.10;;;8.55;52.43;102730.44;5054068;28;20226;-52
2022/03/07 04:26:21;;;;;;;18.90;13.00;;;5.30;69.40;;;8.58;52.42;102735.47;5054560;28;20198;-51
2022/03/07 04:28:49;;;;;;;22.23;14.83;;;5.30;69.40;;;8.60;52.26;102733.56;5054331;28;20210;-54
2022/03/07 04:31:16;;;;;;;28.90;16.87;;;5.30;69.00;;;8.63;52.57;102738.56;5053471;28;20195;-52
2022/03/07 04:33:44;;;;;;;27.77;17.13;;;5.40;68.80;;;8.64;52.04;102740.25;5054488;28;20207;-54
2022/03/07 04:36:14;;;;;;;31.03;17.17;;;5.40;68.10;;;8.61;51.63;102729.97;5054495;28;20215;-51
2022/03/07 04:38:41;;;;;;;24.37;16.50;;;5.30;68.10;;;8.55;51.37;102738.31;5054256;28;20195;-54
2022/03/07 04:41:09;;;;;;;24.63;13.93;;;5.20;68.20;;;8.49;51.49;102736.09;5054216;28;20186;-53
2022/03/07 04:43:36;;;;;;;23.80;14.20;;;5.10;68.70;;;8.44;52.17;102739.06;5053799;28;20237;-52
2022/03/07 04:46:04;;;;;;;28.27;13.93;;;5.10;69.00;;;8.45;52.21;102734.66;5053979;28;20194;-55
2022/03/07 04:48:31;;;;;;;35.30;13.27;;;5.10;68.90;;;8.44;52.01;102731.19;5052874;28;20221;-53
2022/03/07 04:50:59;;;;;;;37.37;13.50;;;5.10;68.70;;;8.41;51.70;102733.22;5054061;28;20194;-55
2022/03/07 04:53:27;;;;;;;26.83;10.80;;;5.10;68.90;;;8.37;51.62;102737.03;5053339;28;20195;-54
2022/03/07 04:55:55;;;;;;;30.37;10.83;;;5.00;69.00;;;8.30;51.46;102730.50;5053382;28;20272;-51
2022/03/07 04:58:22;;;;;;;21.60;11.37;;;5.00;68.50;;;8.22;52.22;102738.09;5054031;28;20194;-52
2022/03/07 05:00:52;;;;;;;17.30;12.10;;;4.90;68.90;;;8.17;53.55;102749.75;5053791;28;20630;-53
2022/03/07 05:03:19;;;;;;;19.77;12.43;;;4.90;70.20;;;8.15;53.21;102751.63;5053432;28;20687;-54
2022/03/07 05:05:47;;;;;;;14.70;10.13;;;4.90;70.40;;;8.15;52.84;102741.13;5053931;28;20581;-51
2022/03/07 05:08:15;;;;;;;21.07;10.57;;;4.90;69.60;;;8.16;53.15;102740.19;5053839;28;20194;-55
2022/03/07 05:10:44;;;;;;;14.60;10.37;;;4.90;69.70;;;8.18;53.11;102742.69;5053966;28;20221;-52
2022/03/07 05:13:12;;;;;;;17.23;9.87;;;5.00;70.00;;;8.21;53.02;102750.34;5053392;28;20183;-52
2022/03/07 05:15:39;;;;;;;16.00;11.30;;;5.00;69.40;;;8.25;53.15;102748.38;5053861;28;20199;-54
2022/03/07 05:18:07;;;;;;;45.33;10.83;;;5.10;69.40;;;8.26;52.46;102745.66;5053808;28;20646;-54
2022/03/07 05:20:35;;;;;;;29.30;10.10;;;5.00;68.30;;;8.23;52.33;102740.59;5053693;28;20184;-53
2022/03/07 05:23:21;;;;;;;44.13;12.37;;;5.00;68.30;;;8.16;52.23;102736.72;5053111;28;20760;-51
2022/03/07 05:25:50;;;;;;;13.87;9.70;;;4.90;68.80;;;8.11;52.18;102742.31;5053296;28;20186;-54
2022/03/07 05:28:17;;;;;;;15.47;10.70;;;4.80;68.90;;;8.08;52.68;102741.69;5053032;28;20214;-53
2022/03/07 05:30:45;;;;;;;12.00;9.97;;;4.80;69.20;;;8.06;53.08;102739.16;5052899;28;20203;-50
2022/03/07 05:33:12;;;;;;;17.33;9.73;;;4.80;69.50;;;8.05;53.03;102742.75;5052616;28;20624;-51
2022/03/07 05:35:39;;;;;;;11.97;9.67;;;4.80;69.40;;;8.05;52.52;102745.38;5052026;28;20278;-50
2022/03/07 05:38:08;;;;;;;12.33;8.67;;;4.80;68.90;;;8.04;52.46;102751.56;5052835;28;20201;-56
2022/03/07 05:40:36;;;;;;;18.53;12.20;;;4.90;68.40;;;8.03;52.64;102752.47;5053268;28;20564;-53
2022/03/07 05:43:04;;;;;;;10.93;9.50;;;4.90;69.10;;;8.02;52.58;102753.44;5052470;28;20197;-54
2022/03/07 05:45:32;;;;;;;11.80;9.80;;;4.90;68.60;;;8.02;53.02;102749.97;5052777;28;20232;-53
2022/03/07 05:47:59;;;;;;;13.73;9.97;;;4.80;68.40;;;8.00;52.45;102754.50;5052825;28;20190;-56
2022/03/07 05:50:26;;;;;;;13.80;10.57;;;4.80;68.30;;;7.98;52.59;102751.16;5052694;28;20211;-51
2022/03/07 05:52:54;;;;;;;13.63;10.40;;;4.80;68.80;;;7.98;52.45;102749.38;5052487;28;20588;-52
2022/03/07 05:55:25;;;;;;;12.73;10.57;;;4.80;68.70;;;7.97;53.20;102747.69;5053014;28;20213;-53
2022/03/07 05:57:59;;;;;;;11.40;8.90;;;4.80;69.40;;;8.02;53.05;102748.19;5051830;28;20565;-52
2022/03/07 06:00:30;;;;;;;12.70;8.60;;;4.90;69.20;;;8.02;52.42;102740.34;5051952;28;20233;-52
2022/03/07 06:02:57;;;;;;;16.07;11.03;;;4.90;68.20;;;8.05;52.75;102748.00;5051322;28;20191;-55
2022/03/07 06:05:25;;;;;;;13.70;10.43;;;4.90;68.60;;;8.08;52.99;102742.50;5052664;28;20260;-51
2022/03/07 06:07:52;;;;;;;10.90;8.87;;;4.90;69.00;;;8.10;52.53;102748.50;5052670;28;20211;-52
2022/03/07 06:10:20;;;;;;;11.97;9.57;;;4.90;69.10;;;8.11;52.41;102751.94;5056309;28;20213;-51
2022/03/07 06:12:47;;;;;;;13.70;10.13;;;5.00;68.20;;;8.08;52.44;102742.50;5056396;28;20265;-52
2022/03/07 06:15:18;;;;;;;17.10;10.37;;;4.90;68.10;;;8.08;52.38;102753.00;5056281;28;20260;-52
2022/03/07 06:17:51;;;;;;;11.20;8.57;;;4.90;68.20;;;8.05;52.10;102752.41;5056482;28;20201;-51
2022/03/07 06:20:20;;;;;;;10.37;8.23;;;4.90;67.40;;;8.03;52.83;102757.72;5056229;28;20182;-52
2022/03/07 06:22:47;;;;;;;11.87;8.93;;;4.90;67.90;;;8.05;52.46;102761.09;5055962;28;20196;-51
2022/03/07 06:25:15;;;;;;;10.93;9.37;;;4.90;68.20;;;8.08;52.34;102766.09;5056614;28;20218;-54
2022/03/07 06:27:43;;;;;;;12.10;9.83;;;4.90;68.20;;;8.09;52.17;102765.19;5056299;28;20236;-52
2022/03/07 06:30:11;;;;;;;14.10;9.40;;;4.90;67.80;;;8.09;51.63;102759.94;5055914;28;20213;-51
2022/03/07 06:32:39;;;;;;;16.40;10.37;;;4.90;67.40;;;8.08;51.43;102762.69;5055841;28;20194;-51
2022/03/07 06:35:13;;;;;;;12.30;9.50;;;4.90;66.90;;;8.03;51.97;102760.34;5056408;28;20213;-51
2022/03/07 06:37:46;;;;;;;12.43;9.30;;;4.80;67.10;;;8.00;52.14;102760.59;5056329;28;20235;-52
2022/03/07 06:40:13;;;;;;;12.97;9.47;;;4.80;67.10;;;7.97;51.71;102760.78;5055372;28;20186;-52
2022/03/07 06:42:41;;;;;;;15.47;10.33;;;4.80;67.10;;;7.92;51.80;102762.06;5056259;28;20660;-53
2022/03/07 06:45:12;;;;;;;16.03;9.57;;;4.70;67.90;;;7.92;52.12;102765.53;5057572;28;20233;-53
2022/03/07 06:47:40;;;;;;;15.80;8.50;;;4.70;68.10;;;7.92;52.13;102765.53;5055745;28;20198;-50
2022/03/07 06:50:09;;;;;;;11.00;9.17;;;4.70;67.60;;;7.93;52.42;102767.22;5056804;28;20642;-51
2022/03/07 06:52:37;;;;;;;12.77;9.20;;;4.70;68.10;;;7.94;52.17;102766.25;5056556;28;20663;-52
2022/03/07 06:55:07;;;;;;;12.67;9.13;;;4.70;67.70;;;7.94;51.45;102765.44;5057298;28;20718;-55
2022/03/07 06:57:34;;;;;;;8.93;7.87;;;4.70;67.40;;;7.92;51.24;102765.53;5057791;28;20249;-50
2022/03/07 07:00:03;;;;;;;11.03;7.13;;;4.70;67.00;;;7.91;51.54;102771.72;5057823;28;20205;-50
2022/03/07 07:02:31;;;;;;;12.00;8.87;;;4.60;66.80;;;7.86;51.54;102763.34;5057458;28;20212;-52
2022/03/07 07:04:59;;;;;;;12.27;9.87;;;4.60;67.10;;;7.84;52.16;102765.22;5057942;28;20206;-52
2022/03/07 07:07:26;;;;;;;12.57;9.40;;;4.50;67.70;;;7.88;51.94;102778.94;5055142;28;20228;-52
2022/03/07 07:09:54;;;;;;;13.70;9.23;;;4.60;68.10;;;7.91;52.23;102776.97;5057083;28;20302;-52
2022/03/07 07:12:22;;;;;;;10.67;9.43;;;4.60;68.40;;;7.97;52.17;102780.94;5056110;28;20194;-53
2022/03/07 07:14:50;;;;;;;10.00;8.53;;;4.60;68.80;;;8.06;52.61;102786.38;5053639;28;20233;-55
2022/03/07 07:17:17;;;;;;;12.83;9.87;;;4.70;69.30;;;8.19;52.31;102792.44;5053969;28;20533;-56
2022/03/07 07:19:45;;;;;;;9.43;8.23;;;4.80;69.20;;;8.31;52.19;102780.25;5054577;28;20186;-52
2022/03/07 07:22:12;;;;;;;10.70;9.10;;;4.90;68.70;;;8.41;51.82;102790.94;5054858;28;20211;-52
2022/03/07 07:24:40;;;;;;;10.67;9.57;;;5.10;68.10;;;8.47;51.27;102786.09;5055011;28;20256;-51
2022/03/07 07:27:09;;;;;;;16.37;12.80;;;5.10;67.20;;;8.54;51.27;102791.72;5045089;28;20211;-54
2022/03/07 07:29:37;;;;;;;10.53;8.70;;;5.20;67.30;;;8.61;50.88;102795.59;5036106;28;20234;-56
2022/03/07 07:32:05;;;;;;;8.50;7.60;;;5.30;66.80;;;8.68;50.54;102796.81;5055378;28;20202;-56
2022/03/07 07:34:32;;;;;;;14.43;10.70;;;5.40;66.30;;;8.74;50.49;102799.00;5051515;28;20701;-55
2022/03/07 07:37:00;;;;;;;10.73;8.60;;;5.40;66.10;;;8.78;50.19;102801.28;5046547;28;20187;-57
2022/03/07 07:39:36;;;;;;;14.57;11.23;;;5.50;65.60;;;8.86;50.20;102800.75;5038155;28;20195;-55
2022/03/07 07:42:04;;;;;;;10.17;7.80;;;5.50;65.60;;;8.92;49.59;102802.06;5036763;28;20286;-53
2022/03/07 07:44:33;;;;;;;9.23;7.43;;;5.60;65.20;;;8.96;49.14;102799.13;5054368;28;20624;-53
2022/03/07 07:47:01;;;;;;;9.03;8.13;;;5.60;64.50;;;8.97;49.35;102800.78;5054077;28;20219;-52
2022/03/07 07:49:30;;;;;;;13.03;9.40;;;5.60;64.50;;;9.01;49.55;102794.34;5054271;28;20211;-52
2022/03/07 07:51:58;;;;;;;9.30;8.30;;;5.60;65.10;;;9.08;49.04;102800.00;5046673;28;20195;-53
2022/03/07 07:54:30;;;;;;;9.40;8.50;;;5.70;64.70;;;9.10;48.26;102801.56;5038804;28;20628;-52
2022/03/07 07:56:59;;;;;;;10.37;8.07;;;5.70;63.90;;;9.09;48.66;102802.50;5039153;28;20193;-54
2022/03/07 07:59:26;;;;;;;15.03;10.13;;;5.70;63.40;;;9.10;48.56;102801.56;5035124;28;20198;-51
2022/03/07 08:01:55;;;;;;;10.10;9.00;;;5.70;63.80;;;9.12;48.70;102804.91;5041847;28;20222;-52
2022/03/07 08:04:22;;;;;;;11.77;10.00;;;5.70;63.60;;;9.12;48.23;102801.44;5044817;28;20219;-52
2022/03/07 08:06:50;;;;;;;13.83;11.27;;;5.70;63.40;;;9.10;48.66;102812.06;5033282;28;20192;-53
2022/03/07 08:09:17;;;;;;;14.77;12.50;;;5.60;63.70;;;9.13;48.91;102805.75;5049192;28;20321;-51
2022/03/07 08:11:45;;;;;;;10.83;9.47;;;5.70;64.20;;;9.14;48.67;102800.38;5038218;28;20210;-58
2022/03/07 08:14:12;;;;;;;11.00;9.60;;;5.70;63.90;;;9.13;48.91;102803.13;5034884;28;20212;-56
2022/03/07 08:16:40;;;;;;;17.33;11.93;;;5.70;63.70;;;9.06;48.53;102794.84;5045801;28;20221;-53
2022/03/07 08:19:08;;;;;;;22.23;15.83;;;5.80;63.30;;;9.02;48.84;102803.91;5040854;28;20225;-56
2022/03/07 08:21:36;;;;;;;16.10;11.60;;;5.70;63.40;;;9.03;48.76;102800.34;5046839;28;20191;-55
2022/03/07 08:24:04;;;;;;;13.30;10.20;;;5.70;63.40;;;9.09;48.69;102794.63;5051640;28;20226;-55
2022/03/07 08:26:32;;;;;;;12.10;9.83;;;5.70;63.60;;;9.21;48.80;102808.63;5053304;28;20202;-53
2022/03/07 08:28:59;;;;;;;13.00;11.47;;;5.80;63.80;;;9.29;48.68;102809.75;5052599;28;20224;-53
2022/03/07 08:31:27;;;;;;;13.83;11.00;;;5.80;63.90;;;9.34;48.66;102804.94;5051900;28;20219;-52
2022/03/07 08:33:54;;;;;;;17.03;12.00;;;5.90;64.00;;;9.44;48.49;102800.69;5052774;28;20221;-55
2022/03/07 08:36:23;;;;;;;18.10;15.13;;;5.90;64.20;;;9.64;48.33;102806.22;5053952;28;20194;-56
2022/03/07 08:38:50;;;;;;;17.63;12.80;;;6.10;64.70;;;9.84;48.60;102808.16;5053576;28;20190;-52
2022/03/07 08:41:18;;;;;;;16.20;12.57;;;6.20;64.60;;;9.92;47.77;102803.13;5053662;28;20241;-55
2022/03/07 08:43:46;;;;;;;17.37;13.57;;;6.40;64.10;;;10.02;48.17;102804.09;5053659;28;20210;-55
2022/03/07 08:46:13;;;;;;;17.47;15.00;;;6.40;63.80;;;10.18;48.01;102809.84;5054003;28;20200;-53
2022/03/07 08:48:41;;;;;;;21.10;18.33;;;6.50;63.00;;;10.37;47.19;102802.19;5054770;28;20245;-53
2022/03/07 08:51:09;;;;;;;15.93;12.87;;;6.70;63.50;;;10.64;47.39;102810.50;5054057;28;20666;-54
2022/03/07 08:53:38;;;;;;;12.77;10.87;;;6.90;63.50;;;11.25;46.86;102816.84;5053031;28;20489;-53
2022/03/07 08:56:05;;;;;;;13.50;11.37;;;7.10;63.70;;;11.89;45.87;102825.47;5053700;28;20204;-52
2022/03/07 08:58:53;;;;;;;13.07;10.20;;;7.50;62.90;;;12.24;45.09;102823.25;5052761;28;20197;-55
2022/03/07 09:01:20;;;;;;;13.63;12.20;;;7.90;62.30;;;12.79;44.01;102832.41;5053740;28;20261;-55
2022/03/07 09:03:48;;;;;;;12.30;11.10;;;8.30;60.90;;;13.82;43.09;102822.06;5053674;28;20213;-54
2022/03/07 09:06:16;;;;;;;12.03;10.83;;;8.90;61.50;;;14.90;41.44;102816.75;5053380;28;20197;-53
2022/03/07 09:08:45;;;;;;;11.97;10.60;;;9.60;60.70;;;15.92;39.49;102823.19;5053544;28;20205;-57
2022/03/07 09:11:12;;;;;;;16.67;10.67;;;10.30;57.50;;;16.87;37.70;102826.38;5053404;28;20292;-57
2022/03/07 09:13:39;;;;;;;12.87;11.10;;;11.00;56.00;;;17.79;35.64;102822.50;5053163;28;20221;-56
2022/03/07 09:16:07;;;;;;;11.77;10.30;;;11.80;52.80;;;18.60;34.15;102823.88;5052952;28;20272;-56
2022/03/07 09:18:34;;;;;;;11.70;10.40;;;12.50;51.40;;;19.33;32.23;102816.13;5052663;28;20208;-53
2022/03/07 09:21:02;;;;;;;10.80;9.70;;;13.10;48.40;;;19.99;32.10;102812.63;5053325;28;20199;-53
2022/03/07 09:23:33;;;;;;;11.13;10.03;;;13.80;48.30;;;20.67;30.75;102819.44;5052570;28;20212;-52
2022/03/07 09:26:02;;;;;;;12.00;9.93;;;14.40;46.30;;;21.25;30.13;102811.16;5053490;28;20251;-56
2022/03/07 09:28:29;;;;;;;10.90;9.80;;;15.00;45.30;;;21.79;29.16;102823.94;5053215;28;20214;-56
2022/03/07 09:30:56;;;;;;;10.53;9.60;;;15.50;43.90;;;22.27;28.00;102814.94;5053123;28;20221;-57
2022/03/07 09:33:24;;;;;;;16.33;14.77;;;16.00;42.80;;;22.77;26.88;102809.09;5052116;28;20264;-58
2022/03/07 09:35:51;;;;;;;17.60;15.80;;;16.50;40.60;;;23.22;26.93;102812.88;5052695;28;20269;-55
2022/03/07 09:38:19;;;;;;;19.73;17.63;;;16.90;40.50;;;23.66;25.52;102804.16;5051678;28;20194;-55
2022/03/07 09:40:47;;;;;;;18.07;16.37;;;17.30;38.30;;;24.05;25.35;102805.91;5052655;28;20223;-57
2022/03/07 09:43:16;;;;;;;22.90;20.50;;;17.70;38.10;;;24.45;24.28;102806.56;5052079;28;20197;-53
2022/03/07 09:45:43;;;;;;;12.60;11.40;;;18.10;36.80;;;24.73;23.98;102807.00;5052201;28;20182;-57
2022/03/07 09:48:12;;;;;;;12.53;11.30;;;18.40;35.60;;;24.90;23.75;102813.56;5052208;28;20241;-53
2022/03/07 09:50:40;;;;;;;12.83;11.63;;;18.70;34.90;;;25.29;23.98;102813.22;5052046;28;20247;-54
2022/03/07 09:53:09;;;;;;;13.77;12.37;;;19.10;35.70;;;25.71;22.82;102817.00;5051858;28;20190;-54
2022/03/07 09:55:37;;;;;;;14.03;12.77;;;19.30;33.70;;;26.09;22.47;102814.09;5052623;28;20243;-55
2022/03/07 09:58:06;;;;;;;13.37;12.07;;;19.60;32.90;;;26.37;21.97;102808.97;5052330;28;20200;-53
2022/03/07 10:00:35;;;;;;;12.20;11.10;;;19.90;32.20;;;26.58;21.63;102813.84;5052310;28;20189;-57
2022/03/07 10:03:05;;;;;;;11.60;10.50;;;20.20;31.90;;;26.84;21.01;102805.38;5049648;28;20217;-54
2022/03/07 10:05:36;;;;;;;11.50;10.40;;;20.40;32.00;;;27.14;20.82;102812.59;5032982;28;20304;-55
2022/03/07 10:08:06;;;;;;;12.33;11.17;;;20.50;30.90;;;27.39;20.99;102802.41;5043792;28;20224;-57
2022/03/07 10:10:36;;;;;;;12.13;11.03;;;20.70;31.90;;;27.73;20.46;102806.97;5039636;28;20215;-57
2022/03/07 10:13:08;;;;;;;12.47;11.17;;;20.90;30.30;;;27.98;19.65;102807.50;5040775;28;20861;-55
2022/03/07 10:15:41;;;;;;;15.20;12.93;;;21.10;29.20;;;28.17;19.55;102802.75;5035350;28;20636;-58
2022/03/07 10:18:15;;;;;;;14.40;12.97;;;21.20;29.40;;;28.28;19.33;102806.50;5032451;28;20198;-56